^^
Saratoga-Weather Station Historical Data
Daily Summary for June 18, 2020 Units:  Both    English   Metric
Daily Weekly Monthly Yearly Custom
  High: Low: Average:
Temperature: 49.8 °F /  9.9 °C 39.7 °F /  4.3 °C 44.1 °F /  6.7 °C
Dew Point: 47.5 °F /  8.6 °C 38.7 °F /  3.7 °C 42.8 °F /  6 °C
Humidity: 97% 89% 95%
Wind Speed: 2.9mph /  4.7km/h - 0.2mph /  0.4km/h
Wind Gust: 4mph /  6.4km/h - -
Wind- - ESE
Pressure: 30.3 in /  1027.1 hPa 30.1 in /  1020.7 hPa -
Precipitation: 0.01 in /  0.2 mm    
Historical Graphs
 
 
Tabular Data for June 18, 2020
Time Temperature Dew Point Pressure Wind Wind Speed Wind Gust Humidity Rainfall Rate (Hourly) solar
00:01 49.6 °F /  9.8 °C 46.6 °F /  8.1 °C 30.3in /  1027.1hPa Calm     89% 0in /  0.0mm 0 W/m2
00:06 49.5 °F /  9.7 °C 46.4 °F /  8 °C 30.3in /  1027.1hPa Calm     89% 0in /  0.0mm 0 W/m2
00:11 49.3 °F /  9.6 °C 46.2 °F /  7.9 °C 30.3in /  1027.1hPa Calm   1mph /  1.6km/h 89% 0in /  0.0mm 0 W/m2
00:16 48.9 °F /  9.4 °C 46 °F /  7.8 °C 30.3in /  1027.1hPa Calm     90% 0in /  0.0mm 0 W/m2
00:21 48.7 °F /  9.3 °C 45.9 °F /  7.7 °C 30.3in /  1027.1hPa Calm   1mph /  1.6km/h 90% 0in /  0.0mm 0 W/m2
00:26 48.4 °F /  9.1 °C 45.5 °F /  7.5 °C 30.3in /  1027.1hPa Calm     90% 0in /  0.0mm 0 W/m2
00:31 48 °F /  8.9 °C 45.1 °F /  7.3 °C 30.3in /  1027.1hPa Calm     90% 0in /  0.0mm 0 W/m2
00:36 47.8 °F /  8.8 °C 45.3 °F /  7.4 °C 30.3in /  1027.1hPa Calm     91% 0in /  0.0mm 0 W/m2
00:41 47.5 °F /  8.6 °C 45 °F /  7.2 °C 30.3in /  1027.1hPa Calm     91% 0in /  0.0mm 0 W/m2
00:46 47.3 °F /  8.5 °C 44.8 °F /  7.1 °C 30.3in /  1027.1hPa Calm     91% 0in /  0.0mm 0 W/m2
00:51 47.1 °F /  8.4 °C 45 °F /  7.2 °C 30.3in /  1027.1hPa Calm     92% 0in /  0.0mm 0 W/m2
00:57 46.9 °F /  8.3 °C 44.8 °F /  7.1 °C 30.3in /  1027.1hPa Calm     92% 0in /  0.0mm 0 W/m2
01:02 46.8 °F /  8.2 °C 44.6 °F /  7 °C 30.3in /  1027.1hPa Calm     92% 0in /  0.0mm 0 W/m2
01:07 46.6 °F /  8.1 °C 44.4 °F /  6.9 °C 30.3in /  1027.1hPa Calm     92% 0in /  0.0mm 0 W/m2
01:12 46.4 °F /  8 °C 44.2 °F /  6.8 °C 30.3in /  1027.1hPa Calm     92% 0in /  0.0mm 0 W/m2
01:17 46.2 °F /  7.9 °C 44.2 °F /  6.8 °C 30.3in /  1027.1hPa Calm     93% 0in /  0.0mm 0 W/m2
01:22 46 °F /  7.8 °C 44.1 °F /  6.7 °C 30.3in /  1027.1hPa Calm     93% 0in /  0.0mm 0 W/m2
01:27 45.9 °F /  7.7 °C 43.7 °F /  6.5 °C 30.3in /  1027.1hPa Calm     92% 0in /  0.0mm 0 W/m2
01:32 45.5 °F /  7.5 °C 43.3 °F /  6.3 °C 30.3in /  1027.1hPa Calm     92% 0in /  0.0mm 0 W/m2
01:37 45.3 °F /  7.4 °C 43.3 °F /  6.3 °C 30.3in /  1027.1hPa ESE 2mph /  3.2km/h 3mph /  4.8km/h 93% 0in /  0.0mm 0 W/m2
01:42 45.1 °F /  7.3 °C 43.2 °F /  6.2 °C 30.3in /  1026.8hPa Calm   1mph /  1.6km/h 93% 0in /  0.0mm 0 W/m2
01:47 45.1 °F /  7.3 °C 43.2 °F /  6.2 °C 30.3in /  1026.8hPa Calm   3mph /  4.8km/h 93% 0in /  0.0mm 0 W/m2
01:52 45.1 °F /  7.3 °C 43.5 °F /  6.4 °C 30.3in /  1026.8hPa Calm     94% 0in /  0.0mm 0 W/m2
01:57 45 °F /  7.2 °C 43 °F /  6.1 °C 30.3in /  1027.1hPa Calm     93% 0in /  0.0mm 0 W/m2
02:02 44.8 °F /  7.1 °C 43.2 °F /  6.2 °C 30.3in /  1027.1hPa Calm     94% 0in /  0.0mm 0 W/m2
02:07 44.6 °F /  7 °C 43 °F /  6.1 °C 30.3in /  1027.1hPa Calm     94% 0in /  0.0mm 0 W/m2
02:12 44.4 °F /  6.9 °C 42.8 °F /  6 °C 30.3in /  1027.1hPa Calm     94% 0in /  0.0mm 0 W/m2
02:17 44.2 °F /  6.8 °C 42.6 °F /  5.9 °C 30.3in /  1026.8hPa Calm     94% 0in /  0.0mm 0 W/m2
02:22 44.1 °F /  6.7 °C 42.4 °F /  5.8 °C 30.3in /  1026.8hPa Calm     94% 0in /  0.0mm 0 W/m2
02:27 44.1 °F /  6.7 °C 42.4 °F /  5.8 °C 30.3in /  1026.8hPa Calm     94% 0in /  0.0mm 0 W/m2
02:32 44.1 °F /  6.7 °C 42.4 °F /  5.8 °C 30.3in /  1026.8hPa Calm     94% 0in /  0.0mm 0 W/m2
02:37 43.9 °F /  6.6 °C 42.3 °F /  5.7 °C 30.3in /  1026.8hPa Calm     94% 0in /  0.0mm 0 W/m2
02:42 43.7 °F /  6.5 °C 42.1 °F /  5.6 °C 30.3in /  1026.8hPa Calm     94% 0in /  0.0mm 0 W/m2
02:47 43.5 °F /  6.4 °C 41.9 °F /  5.5 °C 30.3in /  1026.8hPa Calm     94% 0in /  0.0mm 0 W/m2
02:52 43.5 °F /  6.4 °C 42.3 °F /  5.7 °C 30.3in /  1026.8hPa Calm     95% 0in /  0.0mm 0 W/m2
02:57 43.3 °F /  6.3 °C 42.1 °F /  5.6 °C 30.3in /  1026.8hPa Calm     95% 0in /  0.0mm 0 W/m2
03:02 43.3 °F /  6.3 °C 42.1 °F /  5.6 °C 30.3in /  1026.8hPa Calm     95% 0in /  0.0mm 0 W/m2
03:07 43.2 °F /  6.2 °C 41.9 °F /  5.5 °C 30.3in /  1026.8hPa Calm     95% 0in /  0.0mm 0 W/m2
03:12 43 °F /  6.1 °C 41.7 °F /  5.4 °C 30.3in /  1026.8hPa Calm     95% 0in /  0.0mm 0 W/m2
03:17 43 °F /  6.1 °C 41.7 °F /  5.4 °C 30.3in /  1026.8hPa Calm     95% 0in /  0.0mm 0 W/m2
03:22 42.8 °F /  6 °C 41.5 °F /  5.3 °C 30.3in /  1026.8hPa Calm     95% 0in /  0.0mm 0 W/m2
03:27 42.6 °F /  5.9 °C 41.4 °F /  5.2 °C 30.3in /  1026.8hPa Calm     95% 0in /  0.0mm 0 W/m2
03:32 42.4 °F /  5.8 °C 41.2 °F /  5.1 °C 30.3in /  1026.8hPa Calm     95% 0in /  0.0mm 0 W/m2
03:37 42.3 °F /  5.7 °C 41 °F /  5 °C 30.3in /  1026.8hPa Calm     95% 0in /  0.0mm 0 W/m2
03:42 42.3 °F /  5.7 °C 41 °F /  5 °C 30.3in /  1026.8hPa Calm     95% 0in /  0.0mm 0 W/m2
03:47 42.1 °F /  5.6 °C 40.8 °F /  4.9 °C 30.3in /  1026.8hPa Calm     95% 0in /  0.0mm 0 W/m2
03:52 42.1 °F /  5.6 °C 40.8 °F /  4.9 °C 30.3in /  1026.8hPa Calm     95% 0in /  0.0mm 0 W/m2
03:57 42.1 °F /  5.6 °C 40.8 °F /  4.9 °C 30.3in /  1026.8hPa Calm     95% 0in /  0.0mm 0 W/m2
04:02 42.1 °F /  5.6 °C 40.8 °F /  4.9 °C 30.3in /  1026.8hPa ESE 0.9mph /  1.4km/h 1mph /  1.6km/h 95% 0in /  0.0mm 0 W/m2
04:07 42.3 °F /  5.7 °C 41 °F /  5 °C 30.3in /  1026.8hPa Calm     95% 0in /  0.0mm 0 W/m2
04:12 42.3 °F /  5.7 °C 41 °F /  5 °C 30.3in /  1026.8hPa Calm     95% 0in /  0.0mm 0 W/m2
04:17 42.3 °F /  5.7 °C 41 °F /  5 °C 30.3in /  1026.4hPa Calm     95% 0in /  0.0mm 0 W/m2
04:22 42.3 °F /  5.7 °C 41 °F /  5 °C 30.3in /  1026.4hPa Calm     95% 0in /  0.0mm 0 W/m2
04:27 42.1 °F /  5.6 °C 40.8 °F /  4.9 °C 30.3in /  1026.4hPa Calm     95% 0in /  0.0mm 0 W/m2
04:32 42.1 °F /  5.6 °C 40.8 °F /  4.9 °C 30.3in /  1026.4hPa Calm     95% 0in /  0.0mm 0 W/m2
04:37 41.9 °F /  5.5 °C 40.8 °F /  4.9 °C 30.3in /  1026.4hPa Calm     96% 0in /  0.0mm 0 W/m2
04:42 41.7 °F /  5.4 °C 40.5 °F /  4.7 °C 30.3in /  1026.4hPa Calm     95% 0in /  0.0mm 0 W/m2
04:47 41.5 °F /  5.3 °C 40.3 °F /  4.6 °C 30.3in /  1026.4hPa Calm     95% 0in /  0.0mm 0 W/m2
04:52 41.5 °F /  5.3 °C 40.3 °F /  4.6 °C 30.3in /  1026.4hPa Calm     95% 0in /  0.0mm 0 W/m2
04:57 41.4 °F /  5.2 °C 40.1 °F /  4.5 °C 30.3in /  1026.4hPa Calm     95% 0in /  0.0mm 0 W/m2
05:02 41.2 °F /  5.1 °C 40.1 °F /  4.5 °C 30.3in /  1026.4hPa Calm     96% 0in /  0.0mm 0 W/m2
05:07 41.2 °F /  5.1 °C 40.1 °F /  4.5 °C 30.3in /  1026.4hPa Calm     96% 0in /  0.0mm 0 W/m2
05:12 41.2 °F /  5.1 °C 39.9 °F /  4.4 °C 30.3in /  1026.4hPa Calm     95% 0in /  0.0mm 0 W/m2
05:17 41 °F /  5 °C 39.7 °F /  4.3 °C 30.3in /  1026.4hPa Calm     95% 0in /  0.0mm 0 W/m2
05:22 40.8 °F /  4.9 °C 39.7 °F /  4.3 °C 30.3in /  1026.4hPa Calm     96% 0in /  0.0mm 0 W/m2
05:27 40.8 °F /  4.9 °C 39.7 °F /  4.3 °C 30.3in /  1026.4hPa Calm     96% 0in /  0.0mm 0 W/m2
05:33 40.8 °F /  4.9 °C 39.7 °F /  4.3 °C 30.3in /  1026.4hPa Calm     96% 0in /  0.0mm 0 W/m2
05:38 40.6 °F /  4.8 °C 39.6 °F /  4.2 °C 30.3in /  1026.4hPa Calm     96% 0in /  0.0mm 0 W/m2
05:43 40.6 °F /  4.8 °C 39.6 °F /  4.2 °C 30.3in /  1026.4hPa Calm     96% 0in /  0.0mm 0 W/m2
05:48 40.6 °F /  4.8 °C 39.6 °F /  4.2 °C 30.3in /  1026.4hPa Calm     96% 0in /  0.0mm 0 W/m2
05:53 40.5 °F /  4.7 °C 39.4 °F /  4.1 °C 30.3in /  1026.4hPa Calm     96% 0in /  0.0mm 0 W/m2
05:58 40.6 °F /  4.8 °C 39.6 °F /  4.2 °C 30.3in /  1026.4hPa Calm     96% 0in /  0.0mm 0 W/m2
06:03 40.6 °F /  4.8 °C 39.6 °F /  4.2 °C 30.3in /  1026.4hPa Calm     96% 0in /  0.0mm 0 W/m2
06:08 40.5 °F /  4.7 °C 39.4 °F /  4.1 °C 30.3in /  1026.4hPa Calm     96% 0in /  0.0mm 0 W/m2
06:13 40.5 °F /  4.7 °C 39.4 °F /  4.1 °C 30.3in /  1026.4hPa Calm     96% 0in /  0.0mm 0 W/m2
06:18 40.5 °F /  4.7 °C 39.4 °F /  4.1 °C 30.3in /  1026.4hPa Calm     96% 0in /  0.0mm 0 W/m2
06:23 40.5 °F /  4.7 °C 39.4 °F /  4.1 °C 30.3in /  1026.1hPa Calm     96% 0in /  0.0mm 0 W/m2
06:28 40.3 °F /  4.6 °C 39.2 °F /  4 °C 30.3in /  1026.1hPa Calm     96% 0in /  0.0mm 0 W/m2
06:33 40.1 °F /  4.5 °C 39 °F /  3.9 °C 30.3in /  1026.1hPa Calm     96% 0in /  0.0mm 0 W/m2
06:38 39.9 °F /  4.4 °C 38.8 °F /  3.8 °C 30.3in /  1026.1hPa Calm     96% 0in /  0.0mm 0 W/m2
06:43 39.9 °F /  4.4 °C 38.8 °F /  3.8 °C 30.3in /  1026.1hPa Calm     96% 0in /  0.0mm 0 W/m2
06:48 39.9 °F /  4.4 °C 38.8 °F /  3.8 °C 30.3in /  1026.1hPa Calm     96% 0in /  0.0mm 0 W/m2
06:53 39.9 °F /  4.4 °C 38.8 °F /  3.8 °C 30.3in /  1026.1hPa Calm     96% 0in /  0.0mm 0 W/m2
06:58 39.9 °F /  4.4 °C 38.8 °F /  3.8 °C 30.3in /  1026.1hPa Calm     96% 0in /  0.0mm 0 W/m2
07:03 39.7 °F /  4.3 °C 38.7 °F /  3.7 °C 30.3in /  1026.1hPa Calm     96% 0in /  0.0mm 0 W/m2
07:08 39.9 °F /  4.4 °C 38.8 °F /  3.8 °C 30.3in /  1026.1hPa ESE 0.9mph /  1.4km/h 1mph /  1.6km/h 96% 0in /  0.0mm 0 W/m2
07:13 39.9 °F /  4.4 °C 38.8 °F /  3.8 °C 30.3in /  1026.1hPa Calm     96% 0in /  0.0mm 0 W/m2
07:18 39.9 °F /  4.4 °C 38.8 °F /  3.8 °C 30.3in /  1026.1hPa Calm     96% 0in /  0.0mm 0 W/m2
07:23 40.1 °F /  4.5 °C 39 °F /  3.9 °C 30.3in /  1026.1hPa Calm     96% 0in /  0.0mm 0 W/m2
07:28 40.1 °F /  4.5 °C 39 °F /  3.9 °C 30.3in /  1025.7hPa Calm     96% 0in /  0.0mm 0 W/m2
07:33 40.1 °F /  4.5 °C 39 °F /  3.9 °C 30.3in /  1026.1hPa ESE 0.9mph /  1.4km/h 2mph /  3.2km/h 96% 0in /  0.0mm 0 W/m2
07:38 40.3 °F /  4.6 °C 39.2 °F /  4 °C 30.3in /  1026.1hPa East 0.9mph /  1.4km/h 2mph /  3.2km/h 96% 0in /  0.0mm 0 W/m2
07:43 40.3 °F /  4.6 °C 39.2 °F /  4 °C 30.3in /  1026.1hPa East 0.9mph /  1.4km/h 2mph /  3.2km/h 96% 0in /  0.0mm 0 W/m2
07:48 40.3 °F /  4.6 °C 39.2 °F /  4 °C 30.3in /  1026.1hPa East 0.9mph /  1.4km/h 1mph /  1.6km/h 96% 0in /  0.0mm 0 W/m2
07:53 40.5 °F /  4.7 °C 39.4 °F /  4.1 °C 30.3in /  1026.1hPa Calm     96% 0in /  0.0mm 0 W/m2
07:58 40.5 °F /  4.7 °C 39.7 °F /  4.3 °C 30.3in /  1026.1hPa Calm   1mph /  1.6km/h 97% 0in /  0.0mm 0 W/m2
08:03 40.6 °F /  4.8 °C 39.9 °F /  4.4 °C 30.3in /  1026.1hPa Calm     97% 0in /  0.0mm 5 W/m2
08:08 40.6 °F /  4.8 °C 39.9 °F /  4.4 °C 30.3in /  1026.1hPa Calm   1mph /  1.6km/h 97% 0in /  0.0mm 7 W/m2
08:13 40.8 °F /  4.9 °C 40.1 °F /  4.5 °C 30.3in /  1026.1hPa Calm   1mph /  1.6km/h 97% 0in /  0.0mm 7 W/m2
08:18 40.8 °F /  4.9 °C 40.1 °F /  4.5 °C 30.3in /  1026.1hPa Calm     97% 0in /  0.0mm 11 W/m2
08:23 41.2 °F /  5.1 °C 40.5 °F /  4.7 °C 30.3in /  1026.1hPa Calm   2mph /  3.2km/h 97% 0in /  0.0mm 19 W/m2
08:28 41.4 °F /  5.2 °C 40.6 °F /  4.8 °C 30.3in /  1026.1hPa Calm     97% 0in /  0.0mm 18 W/m2
08:33 41.4 °F /  5.2 °C 40.6 °F /  4.8 °C 30.3in /  1026.1hPa East 0.9mph /  1.4km/h 1mph /  1.6km/h 97% 0in /  0.0mm 21 W/m2
08:38 41.4 °F /  5.2 °C 40.6 °F /  4.8 °C 30.3in /  1026.1hPa ESE 0.9mph /  1.4km/h 2mph /  3.2km/h 97% 0in /  0.0mm 25 W/m2
08:43 41.4 °F /  5.2 °C 40.6 °F /  4.8 °C 30.3in /  1026.1hPa Calm   1mph /  1.6km/h 97% 0in /  0.0mm 26 W/m2
08:48 41.5 °F /  5.3 °C 40.8 °F /  4.9 °C 30.3in /  1026.1hPa Calm   1mph /  1.6km/h 97% 0in /  0.0mm 26 W/m2
08:53 41.4 °F /  5.2 °C 40.6 °F /  4.8 °C 30.3in /  1026.1hPa Calm   2mph /  3.2km/h 97% 0in /  0.0mm 33 W/m2
08:58 41.4 °F /  5.2 °C 40.6 °F /  4.8 °C 30.3in /  1026.1hPa Calm   1mph /  1.6km/h 97% 0in /  0.0mm 37 W/m2
09:03 41.4 °F /  5.2 °C 40.6 °F /  4.8 °C 30.3in /  1025.7hPa ESE 0.9mph /  1.4km/h 2mph /  3.2km/h 97% 0in /  0.0mm 33 W/m2
09:08 41.4 °F /  5.2 °C 40.6 °F /  4.8 °C 30.3in /  1025.7hPa SE 0.9mph /  1.4km/h 3mph /  4.8km/h 97% 0in /  0.0mm 37 W/m2
09:13 41.4 °F /  5.2 °C 40.6 °F /  4.8 °C 30.3in /  1025.7hPa ESE 2mph /  3.2km/h 3mph /  4.8km/h 97% 0in /  0.0mm 46 W/m2
09:18 41.5 °F /  5.3 °C 40.8 °F /  4.9 °C 30.3in /  1025.7hPa Calm   1mph /  1.6km/h 97% 0in /  0.0mm 49 W/m2
09:23 41.5 °F /  5.3 °C 40.8 °F /  4.9 °C 30.3in /  1025.7hPa Calm   2mph /  3.2km/h 97% 0in /  0.0mm 58 W/m2
09:28 41.5 °F /  5.3 °C 40.8 °F /  4.9 °C 30.3in /  1025.7hPa East 2mph /  3.2km/h 3mph /  4.8km/h 97% 0in /  0.0mm 51 W/m2
09:33 41.5 °F /  5.3 °C 40.8 °F /  4.9 °C 30.3in /  1025.7hPa Calm   1mph /  1.6km/h 97% 0in /  0.0mm 46 W/m2
09:38 41.5 °F /  5.3 °C 40.8 °F /  4.9 °C 30.3in /  1025.7hPa ESE 0.9mph /  1.4km/h 3mph /  4.8km/h 97% 0in /  0.0mm 40 W/m2
09:43 41.5 °F /  5.3 °C 40.8 °F /  4.9 °C 30.3in /  1025.7hPa East 2mph /  3.2km/h 2mph /  3.2km/h 97% 0in /  0.0mm 53 W/m2
09:48 41.7 °F /  5.4 °C 41 °F /  5 °C 30.3in /  1025.7hPa East 0.9mph /  1.4km/h 1mph /  1.6km/h 97% 0in /  0.0mm 62 W/m2
09:53 41.9 °F /  5.5 °C 41.2 °F /  5.1 °C 30.3in /  1025.7hPa Calm   1mph /  1.6km/h 97% 0in /  0.0mm 62 W/m2
09:58 42.1 °F /  5.6 °C 41.4 °F /  5.2 °C 30.3in /  1025.7hPa ESE 2.9mph /  4.7km/h 3mph /  4.8km/h 97% 0in /  0.0mm 77 W/m2
10:03 42.3 °F /  5.7 °C 41.5 °F /  5.3 °C 30.3in /  1025.7hPa East 2mph /  3.2km/h 2mph /  3.2km/h 97% 0in /  0.0mm 65 W/m2
10:08 42.3 °F /  5.7 °C 41.5 °F /  5.3 °C 30.3in /  1025.7hPa Calm   3mph /  4.8km/h 97% 0in /  0.0mm 76 W/m2
10:13 42.3 °F /  5.7 °C 41.5 °F /  5.3 °C 30.3in /  1025.7hPa ESE 0.9mph /  1.4km/h 2mph /  3.2km/h 97% 0in /  0.0mm 74 W/m2
10:18 42.3 °F /  5.7 °C 41.5 °F /  5.3 °C 30.3in /  1025.7hPa East 2mph /  3.2km/h 2mph /  3.2km/h 97% 0in /  0.0mm 72 W/m2
10:23 42.4 °F /  5.8 °C 41.7 °F /  5.4 °C 30.3in /  1025.7hPa ENE 0.9mph /  1.4km/h 3mph /  4.8km/h 97% 0in /  0.0mm 83 W/m2
10:28 42.4 °F /  5.8 °C 41.7 °F /  5.4 °C 30.3in /  1025.7hPa NE 0.9mph /  1.4km/h 1mph /  1.6km/h 97% 0in /  0.0mm 77 W/m2
10:33 42.6 °F /  5.9 °C 41.9 °F /  5.5 °C 30.3in /  1025.7hPa Calm   1mph /  1.6km/h 97% 0in /  0.0mm 69 W/m2
10:38 42.6 °F /  5.9 °C 41.9 °F /  5.5 °C 30.3in /  1025.7hPa Calm   2mph /  3.2km/h 97% 0in /  0.0mm 69 W/m2
10:43 42.8 °F /  6 °C 42.1 °F /  5.6 °C 30.3in /  1025.7hPa Calm   1mph /  1.6km/h 97% 0in /  0.0mm 72 W/m2
10:48 42.8 °F /  6 °C 42.1 °F /  5.6 °C 30.3in /  1025.7hPa Calm   1mph /  1.6km/h 97% 0in /  0.0mm 91 W/m2
10:53 43 °F /  6.1 °C 42.3 °F /  5.7 °C 30.3in /  1025.7hPa East 0.9mph /  1.4km/h 2mph /  3.2km/h 97% 0in /  0.0mm 91 W/m2
10:58 42.8 °F /  6 °C 42.1 °F /  5.6 °C 30.3in /  1025.7hPa Calm   1mph /  1.6km/h 97% 0in /  0.0mm 76 W/m2
11:03 43 °F /  6.1 °C 42.3 °F /  5.7 °C 30.3in /  1025.7hPa Calm     97% 0in /  0.0mm 74 W/m2
11:08 43 °F /  6.1 °C 42.3 °F /  5.7 °C 30.3in /  1025.7hPa Calm   1mph /  1.6km/h 97% 0in /  0.0mm 97 W/m2
11:13 43 °F /  6.1 °C 42.3 °F /  5.7 °C 30.3in /  1025.4hPa Calm   2mph /  3.2km/h 97% 0in /  0.0mm 127 W/m2
11:18 43.2 °F /  6.2 °C 42.4 °F /  5.8 °C 30.3in /  1025.4hPa East 2mph /  3.2km/h 2mph /  3.2km/h 97% 0in /  0.0mm 111 W/m2
11:23 43.3 °F /  6.3 °C 42.6 °F /  5.9 °C 30.3in /  1025.4hPa East 0.9mph /  1.4km/h 1mph /  1.6km/h 97% 0in /  0.0mm 139 W/m2
11:28 43.3 °F /  6.3 °C 42.6 °F /  5.9 °C 30.3in /  1025.4hPa ENE 0.9mph /  1.4km/h 1mph /  1.6km/h 97% 0in /  0.0mm 123 W/m2
11:33 43.5 °F /  6.4 °C 42.8 °F /  6 °C 30.3in /  1025.4hPa ENE 0.9mph /  1.4km/h 2mph /  3.2km/h 97% 0in /  0.0mm 121 W/m2
11:38 43.7 °F /  6.5 °C 43 °F /  6.1 °C 30.3in /  1025.4hPa Calm   1mph /  1.6km/h 97% 0in /  0.0mm 134 W/m2
11:43 43.9 °F /  6.6 °C 43.2 °F /  6.2 °C 30.3in /  1025.1hPa Calm   4mph /  6.4km/h 97% 0in /  0.0mm 118 W/m2
11:48 43.7 °F /  6.5 °C 43 °F /  6.1 °C 30.3in /  1025.1hPa Calm   1mph /  1.6km/h 97% 0in /  0.0mm 153 W/m2
11:53 43.7 °F /  6.5 °C 43 °F /  6.1 °C 30.3in /  1025.1hPa Calm   4mph /  6.4km/h 97% 0in /  0.0mm 135 W/m2
11:58 43.9 °F /  6.6 °C 43.2 °F /  6.2 °C 30.3in /  1025.1hPa ESE 0.9mph /  1.4km/h 3mph /  4.8km/h 97% 0in /  0.0mm 141 W/m2
12:03 44.1 °F /  6.7 °C 43.3 °F /  6.3 °C 30.3in /  1025.1hPa Calm   4mph /  6.4km/h 97% 0in /  0.0mm 153 W/m2
12:08 44.2 °F /  6.8 °C 43.5 °F /  6.4 °C 30.3in /  1025.1hPa Calm     97% 0in /  0.0mm 58 W/m2
12:13 44.4 °F /  6.9 °C 43.7 °F /  6.5 °C 30.3in /  1024.7hPa East 0.9mph /  1.4km/h 2mph /  3.2km/h 97% 0in /  0.0mm 44 W/m2
12:18 44.4 °F /  6.9 °C 43.7 °F /  6.5 °C 30.3in /  1024.7hPa Calm   2mph /  3.2km/h 97% 0in /  0.0mm 58 W/m2
12:23 44.6 °F /  7 °C 43.9 °F /  6.6 °C 30.3in /  1024.7hPa East 2mph /  3.2km/h 2mph /  3.2km/h 97% 0in /  0.0mm 37 W/m2
12:28 44.8 °F /  7.1 °C 44.1 °F /  6.7 °C 30.3in /  1024.4hPa NE 0.9mph /  1.4km/h 4mph /  6.4km/h 97% 0in /  0.0mm 39 W/m2
12:33 45 °F /  7.2 °C 44.2 °F /  6.8 °C 30.3in /  1024.4hPa Calm   2mph /  3.2km/h 97% 0in /  0.0mm 39 W/m2
12:38 45.1 °F /  7.3 °C 44.4 °F /  6.9 °C 30.3in /  1024.4hPa ENE 2.9mph /  4.7km/h 3mph /  4.8km/h 97% 0in /  0.0mm 49 W/m2
12:43 45.1 °F /  7.3 °C 44.4 °F /  6.9 °C 30.2in /  1024.0hPa ENE 0.9mph /  1.4km/h 1mph /  1.6km/h 97% 0in /  0.0mm 37 W/m2
12:48 45.3 °F /  7.4 °C 44.6 °F /  7 °C 30.2in /  1024.0hPa Calm   1mph /  1.6km/h 97% 0in /  0.0mm 44 W/m2
12:53 45.7 °F /  7.6 °C 45 °F /  7.2 °C 30.2in /  1024.0hPa NE 0.9mph /  1.4km/h 3mph /  4.8km/h 97% 0in /  0.0mm 33 W/m2
12:58 45.9 °F /  7.7 °C 45.1 °F /  7.3 °C 30.2in /  1024.0hPa ENE 2mph /  3.2km/h 3mph /  4.8km/h 97% 0in /  0.0mm 33 W/m2
13:03 46 °F /  7.8 °C 45.3 °F /  7.4 °C 30.2in /  1024.0hPa Calm   1mph /  1.6km/h 97% 0in /  0.0mm 32 W/m2
13:08 46.2 °F /  7.9 °C 45.5 °F /  7.5 °C 30.2in /  1023.7hPa SE 0.9mph /  1.4km/h 3mph /  4.8km/h 97% 0in /  0.0mm 33 W/m2
13:13 46.6 °F /  8.1 °C 45.9 °F /  7.7 °C 30.2in /  1023.7hPa Calm     97% 0in /  0.0mm 35 W/m2
13:18 46.8 °F /  8.2 °C 46 °F /  7.8 °C 30.2in /  1023.4hPa ESE 0.9mph /  1.4km/h 2mph /  3.2km/h 97% 0in /  0.0mm 33 W/m2
13:23 46.9 °F /  8.3 °C 46.2 °F /  7.9 °C 30.2in /  1023.4hPa ENE 0.9mph /  1.4km/h 3mph /  4.8km/h 97% 0in /  0.0mm 30 W/m2
13:28 47.1 °F /  8.4 °C 46.4 °F /  8 °C 30.2in /  1023.4hPa ENE 0.9mph /  1.4km/h 3mph /  4.8km/h 97% 0in /  0.0mm 37 W/m2
13:33 47.7 °F /  8.7 °C 46.9 °F /  8.3 °C 30.2in /  1023.4hPa Calm     97% 0in /  0.0mm 42 W/m2
13:38 47.8 °F /  8.8 °C 46.9 °F /  8.3 °C 30.2in /  1023.4hPa ESE 0.9mph /  1.4km/h 2mph /  3.2km/h 97% 0in /  0.0mm 39 W/m2
13:43 48 °F /  8.9 °C 47.1 °F /  8.4 °C 30.2in /  1023.4hPa Calm     97% 0in /  0.0mm 30 W/m2
13:48 48 °F /  8.9 °C 46.9 °F /  8.3 °C 30.2in /  1023.4hPa Calm   1mph /  1.6km/h 96% 0in /  0.0mm 28 W/m2
13:53 48.2 °F /  9 °C 47.1 °F /  8.4 °C 30.2in /  1023.4hPa SE 0.9mph /  1.4km/h 4mph /  6.4km/h 96% 0in /  0.0mm 51 W/m2
13:58 48.6 °F /  9.2 °C 47.5 °F /  8.6 °C 30.2in /  1023.0hPa East 0.9mph /  1.4km/h 4mph /  6.4km/h 96% 0in /  0.0mm 32 W/m2
14:03 48.7 °F /  9.3 °C 47.3 °F /  8.5 °C 30.2in /  1023.0hPa Calm   2mph /  3.2km/h 95% 0in /  0.0mm 28 W/m2
14:08 49.1 °F /  9.5 °C 47.5 °F /  8.6 °C 30.2in /  1023.0hPa SE 2mph /  3.2km/h 3mph /  4.8km/h 94% 0in /  0.0mm 28 W/m2
14:13 49.5 °F /  9.7 °C 47.5 °F /  8.6 °C 30.2in /  1023.0hPa ESE 0.9mph /  1.4km/h 2mph /  3.2km/h 93% 0in /  0.0mm 28 W/m2
14:18 49.6 °F /  9.8 °C 47.5 °F /  8.6 °C 30.2in /  1022.7hPa ESE 2mph /  3.2km/h 3mph /  4.8km/h 92% 0in /  0.0mm 26 W/m2
14:23 49.6 °F /  9.8 °C 47.5 °F /  8.6 °C 30.2in /  1022.7hPa Calm   1mph /  1.6km/h 92% 0in /  0.0mm 26 W/m2
14:28 49.6 °F /  9.8 °C 47.1 °F /  8.4 °C 30.2in /  1022.7hPa Calm   1mph /  1.6km/h 91% 0in /  0.0mm 26 W/m2
14:33 49.8 °F /  9.9 °C 47.3 °F /  8.5 °C 30.2in /  1022.7hPa SE 2mph /  3.2km/h 2mph /  3.2km/h 91% 0in /  0.0mm 25 W/m2
14:38 49.8 °F /  9.9 °C 46.9 °F /  8.3 °C 30.2in /  1022.7hPa Calm   1mph /  1.6km/h 90% 0in /  0.0mm 25 W/m2
14:43 49.8 °F /  9.9 °C 46.9 °F /  8.3 °C 30.2in /  1022.7hPa Calm   1mph /  1.6km/h 90% 0in /  0.0mm 23 W/m2
14:48 49.8 °F /  9.9 °C 46.9 °F /  8.3 °C 30.2in /  1022.4hPa SE 0.9mph /  1.4km/h 1mph /  1.6km/h 90% 0in /  0.0mm 23 W/m2
14:53 49.6 °F /  9.8 °C 46.8 °F /  8.2 °C 30.2in /  1022.4hPa Calm     90% 0in /  0.0mm 23 W/m2
14:58 49.6 °F /  9.8 °C 46.8 °F /  8.2 °C 30.2in /  1022.4hPa ENE 0.9mph /  1.4km/h 3mph /  4.8km/h 90% 0in /  0.0mm 23 W/m2
15:03 49.6 °F /  9.8 °C 46.8 °F /  8.2 °C 30.2in /  1022.4hPa Calm   1mph /  1.6km/h 90% 0in /  0.0mm 21 W/m2
15:08 49.6 °F /  9.8 °C 46.8 °F /  8.2 °C 30.2in /  1022.4hPa Calm   3mph /  4.8km/h 90% 0in /  0.0mm 21 W/m2
15:13 49.6 °F /  9.8 °C 46.8 °F /  8.2 °C 30.2in /  1022.7hPa Calm     90% 0in /  0.0mm 21 W/m2
15:18 49.6 °F /  9.8 °C 46.8 °F /  8.2 °C 30.2in /  1022.4hPa Calm     90% 0in /  0.0mm 21 W/m2
15:23 49.5 °F /  9.7 °C 46.6 °F /  8.1 °C 30.2in /  1022.4hPa Calm     90% 0in /  0.0mm 21 W/m2
15:28 49.5 °F /  9.7 °C 46.6 °F /  8.1 °C 30.2in /  1022.4hPa Calm     90% 0in /  0.0mm 19 W/m2
15:34 49.3 °F /  9.6 °C 46.4 °F /  8 °C 30.2in /  1022.4hPa Calm     90% 0in /  0.0mm 19 W/m2
15:39 49.1 °F /  9.5 °C 46.2 °F /  7.9 °C 30.2in /  1022.4hPa Calm     90% 0in /  0.0mm 19 W/m2
15:44 48.9 °F /  9.4 °C 46 °F /  7.8 °C 30.2in /  1022.0hPa Calm     90% 0in /  0.0mm 18 W/m2
15:49 48.9 °F /  9.4 °C 46.4 °F /  8 °C 30.2in /  1022.0hPa Calm     91% 0in /  0.0mm 18 W/m2
15:54 48.9 °F /  9.4 °C 46.4 °F /  8 °C 30.2in /  1022.0hPa Calm     91% 0in /  0.0mm 16 W/m2
15:59 48.7 °F /  9.3 °C 46.2 °F /  7.9 °C 30.2in /  1022.0hPa Calm   1mph /  1.6km/h 91% 0in /  0.0mm 16 W/m2
16:04 48.7 °F /  9.3 °C 46.2 °F /  7.9 °C 30.2in /  1022.0hPa Calm     91% 0in /  0.0mm 16 W/m2
16:09 48.6 °F /  9.2 °C 46 °F /  7.8 °C 30.2in /  1022.0hPa SSE 0.9mph /  1.4km/h 1mph /  1.6km/h 91% 0in /  0.0mm 14 W/m2
16:14 48.6 °F /  9.2 °C 46 °F /  7.8 °C 30.2in /  1022.0hPa Calm     91% 0in /  0.0mm 14 W/m2
16:19 48.4 °F /  9.1 °C 45.9 °F /  7.7 °C 30.2in /  1022.0hPa Calm     91% 0in /  0.0mm 12 W/m2
16:24 48 °F /  8.9 °C 45.5 °F /  7.5 °C 30.2in /  1022.0hPa Calm     91% 0in /  0.0mm 12 W/m2
16:29 48 °F /  8.9 °C 45.9 °F /  7.7 °C 30.2in /  1022.0hPa Calm     92% 0in /  0.0mm 11 W/m2
16:34 47.8 °F /  8.8 °C 45.7 °F /  7.6 °C 30.2in /  1022.0hPa Calm     92% 0in /  0.0mm 9 W/m2
16:39 47.7 °F /  8.7 °C 45.5 °F /  7.5 °C 30.2in /  1022.0hPa Calm     92% 0in /  0.0mm 7 W/m2
16:44 47.7 °F /  8.7 °C 45.5 °F /  7.5 °C 30.2in /  1021.7hPa Calm   1mph /  1.6km/h 92% 0in /  0.0mm 5 W/m2
16:49 47.5 °F /  8.6 °C 45.3 °F /  7.4 °C 30.2in /  1021.7hPa Calm   2mph /  3.2km/h 92% 0in /  0.0mm 0 W/m2
16:54 47.3 °F /  8.5 °C 45.3 °F /  7.4 °C 30.2in /  1021.7hPa Calm     93% 0in /  0.0mm 0 W/m2
16:59 47.1 °F /  8.4 °C 45.1 °F /  7.3 °C 30.2in /  1021.7hPa SSE 0.9mph /  1.4km/h 2mph /  3.2km/h 93% 0in /  0.0mm 0 W/m2
17:04 47.1 °F /  8.4 °C 45.1 °F /  7.3 °C 30.2in /  1021.7hPa Calm   1mph /  1.6km/h 93% 0in /  0.0mm 0 W/m2
17:09 46.9 °F /  8.3 °C 45 °F /  7.2 °C 30.2in /  1021.7hPa Calm     93% 0in /  0.0mm 0 W/m2
17:14 46.9 °F /  8.3 °C 45 °F /  7.2 °C 30.2in /  1021.7hPa Calm   1mph /  1.6km/h 93% 0in /  0.0mm 0 W/m2
17:19 46.8 °F /  8.2 °C 44.8 °F /  7.1 °C 30.2in /  1021.7hPa Calm     93% 0in /  0.0mm 0 W/m2
17:24 46.8 °F /  8.2 °C 44.8 °F /  7.1 °C 30.2in /  1021.7hPa Calm     93% 0in /  0.0mm 0 W/m2
17:29 46.6 °F /  8.1 °C 45 °F /  7.2 °C 30.2in /  1021.7hPa Calm     94% 0in /  0.0mm 0 W/m2
17:34 46.4 °F /  8 °C 44.8 °F /  7.1 °C 30.2in /  1022.0hPa Calm     94% 0in /  0.0mm 0 W/m2
17:39 46.2 °F /  7.9 °C 44.6 °F /  7 °C 30.2in /  1021.7hPa Calm     94% 0in /  0.0mm 0 W/m2
17:44 46.2 °F /  7.9 °C 44.6 °F /  7 °C 30.2in /  1022.0hPa Calm     94% 0in /  0.0mm 0 W/m2
17:49 46 °F /  7.8 °C 44.4 °F /  6.9 °C 30.2in /  1022.0hPa Calm     94% 0in /  0.0mm 0 W/m2
17:54 46 °F /  7.8 °C 44.4 °F /  6.9 °C 30.2in /  1022.0hPa Calm     94% 0in /  0.0mm 0 W/m2
17:59 46 °F /  7.8 °C 44.4 °F /  6.9 °C 30.2in /  1021.7hPa Calm     94% 0in /  0.0mm 0 W/m2
18:04 45.9 °F /  7.7 °C 44.2 °F /  6.8 °C 30.2in /  1021.7hPa Calm     94% 0in /  0.0mm 0 W/m2
18:09 45.9 °F /  7.7 °C 44.2 °F /  6.8 °C 30.2in /  1021.7hPa Calm     94% 0in /  0.0mm 0 W/m2
18:14 45.7 °F /  7.6 °C 44.4 °F /  6.9 °C 30.2in /  1021.7hPa Calm     95% 0in /  0.0mm 0 W/m2
18:19 45.7 °F /  7.6 °C 44.4 °F /  6.9 °C 30.2in /  1021.7hPa Calm     95% 0in /  0.0mm 0 W/m2
18:24 45.7 °F /  7.6 °C 44.4 °F /  6.9 °C 30.2in /  1021.7hPa Calm     95% 0in /  0.0mm 0 W/m2
18:29 45.5 °F /  7.5 °C 44.2 °F /  6.8 °C 30.2in /  1021.7hPa Calm     95% 0in /  0.0mm 0 W/m2
18:34 45.3 °F /  7.4 °C 44.1 °F /  6.7 °C 30.2in /  1021.7hPa Calm     95% 0in /  0.0mm 0 W/m2
18:39 45.1 °F /  7.3 °C 43.9 °F /  6.6 °C 30.2in /  1021.3hPa Calm     95% 0in /  0.0mm 0 W/m2
18:44 45 °F /  7.2 °C 43.7 °F /  6.5 °C 30.2in /  1021.3hPa Calm     95% 0in /  0.0mm 0 W/m2
18:49 45 °F /  7.2 °C 43.7 °F /  6.5 °C 30.2in /  1021.3hPa Calm     95% 0in /  0.0mm 0 W/m2
18:54 44.8 °F /  7.1 °C 43.5 °F /  6.4 °C 30.2in /  1021.3hPa Calm     95% 0in /  0.0mm 0 W/m2
18:59 44.6 °F /  7 °C 43.3 °F /  6.3 °C 30.2in /  1021.3hPa Calm     95% 0in /  0.0mm 0 W/m2
19:04 44.4 °F /  6.9 °C 43.2 °F /  6.2 °C 30.2in /  1021.7hPa Calm     95% 0in /  0.0mm 0 W/m2
19:09 44.2 °F /  6.8 °C 43 °F /  6.1 °C 30.2in /  1021.3hPa Calm     95% 0in /  0.0mm 0 W/m2
19:14 44.2 °F /  6.8 °C 43 °F /  6.1 °C 30.2in /  1021.3hPa Calm     95% 0in /  0.0mm 0 W/m2
19:19 44.2 °F /  6.8 °C 43 °F /  6.1 °C 30.2in /  1021.3hPa Calm     95% 0in /  0.0mm 0 W/m2
19:24 44.2 °F /  6.8 °C 43 °F /  6.1 °C 30.2in /  1021.3hPa Calm     95% 0in /  0.0mm 0 W/m2
19:29 44.1 °F /  6.7 °C 42.8 °F /  6 °C 30.2in /  1021.3hPa Calm     95% 0in /  0.0mm 0 W/m2
19:34 44.1 °F /  6.7 °C 42.8 °F /  6 °C 30.2in /  1021.3hPa Calm     95% 0in /  0.0mm 0 W/m2
19:39 43.9 °F /  6.6 °C 42.6 °F /  5.9 °C 30.2in /  1021.3hPa Calm     95% 0in /  0.0mm 0 W/m2
19:44 43.9 °F /  6.6 °C 42.6 °F /  5.9 °C 30.2in /  1021.3hPa Calm     95% 0in /  0.0mm 0 W/m2
19:49 43.9 °F /  6.6 °C 42.6 °F /  5.9 °C 30.2in /  1021.7hPa Calm     95% 0in /  0.0mm 0 W/m2
19:54 43.9 °F /  6.6 °C 42.8 °F /  6 °C 30.2in /  1021.3hPa Calm     96% 0in /  0.0mm 0 W/m2
19:59 44.1 °F /  6.7 °C 43 °F /  6.1 °C 30.2in /  1021.3hPa Calm   2mph /  3.2km/h 96% 0in /  0.0mm 0 W/m2
20:04 44.1 °F /  6.7 °C 43 °F /  6.1 °C 30.2in /  1021.3hPa Calm     96% 0in /  0.0mm 0 W/m2
20:09 44.2 °F /  6.8 °C 43.2 °F /  6.2 °C 30.2in /  1021.3hPa Calm     96% 0in /  0.0mm 0 W/m2
20:14 44.1 °F /  6.7 °C 43 °F /  6.1 °C 30.2in /  1021.3hPa Calm     96% 0in /  0.0mm 0 W/m2
20:19 43.9 °F /  6.6 °C 42.8 °F /  6 °C 30.2in /  1021.3hPa Calm     96% 0in /  0.0mm 0 W/m2
20:24 43.7 °F /  6.5 °C 42.6 °F /  5.9 °C 30.2in /  1021.3hPa Calm     96% 0in /  0.0mm 0 W/m2
20:29 43.5 °F /  6.4 °C 42.4 °F /  5.8 °C 30.2in /  1021.3hPa Calm     96% 0in /  0.0mm 0 W/m2
20:34 43.3 °F /  6.3 °C 42.1 °F /  5.6 °C 30.2in /  1021.3hPa Calm     95% 0in /  0.0mm 0 W/m2
20:39 43.3 °F /  6.3 °C 42.1 °F /  5.6 °C 30.2in /  1021.3hPa Calm     95% 0in /  0.0mm 0 W/m2
20:44 43.2 °F /  6.2 °C 42.1 °F /  5.6 °C 30.2in /  1021.3hPa Calm     96% 0in /  0.0mm 0 W/m2
20:49 43.2 °F /  6.2 °C 42.1 °F /  5.6 °C 30.2in /  1021.3hPa Calm     96% 0in /  0.0mm 0 W/m2
20:54 43.2 °F /  6.2 °C 42.1 °F /  5.6 °C 30.2in /  1021.3hPa Calm     96% 0in /  0.0mm 0 W/m2
20:59 43.2 °F /  6.2 °C 42.1 °F /  5.6 °C 30.2in /  1021.3hPa Calm     96% 0in /  0.0mm 0 W/m2
21:05 43.2 °F /  6.2 °C 42.1 °F /  5.6 °C 30.2in /  1021.3hPa Calm     96% 0in /  0.0mm 0 W/m2
21:10 43 °F /  6.1 °C 41.9 °F /  5.5 °C 30.2in /  1021.3hPa Calm     96% 0in /  0.0mm 0 W/m2
21:15 42.8 °F /  6 °C 41.7 °F /  5.4 °C 30.2in /  1021.3hPa Calm     96% 0in /  0.0mm 0 W/m2
21:20 42.8 °F /  6 °C 41.7 °F /  5.4 °C 30.2in /  1021.0hPa Calm     96% 0in /  0.0mm 0 W/m2
21:25 42.8 °F /  6 °C 41.7 °F /  5.4 °C 30.2in /  1021.3hPa Calm     96% 0in /  0.0mm 0 W/m2
21:30 42.6 °F /  5.9 °C 41.5 °F /  5.3 °C 30.2in /  1021.3hPa Calm     96% 0in /  0.0mm 0 W/m2
21:35 42.6 °F /  5.9 °C 41.5 °F /  5.3 °C 30.2in /  1021.0hPa Calm     96% 0in /  0.0mm 0 W/m2
21:40 42.4 °F /  5.8 °C 41.4 °F /  5.2 °C 30.2in /  1021.0hPa Calm     96% 0in /  0.0mm 0 W/m2
21:45 42.4 °F /  5.8 °C 41.4 °F /  5.2 °C 30.2in /  1021.3hPa Calm     96% 0in /  0.0mm 0 W/m2
21:50 42.6 °F /  5.9 °C 41.5 °F /  5.3 °C 30.2in /  1021.3hPa Calm   1mph /  1.6km/h 96% 0in /  0.0mm 0 W/m2
21:55 42.4 °F /  5.8 °C 41.4 °F /  5.2 °C 30.2in /  1021.3hPa Calm     96% 0in /  0.0mm 0 W/m2
22:00 42.4 °F /  5.8 °C 41.4 °F /  5.2 °C 30.2in /  1021.0hPa Calm     96% 0in /  0.0mm 0 W/m2
22:05 42.4 °F /  5.8 °C 41.4 °F /  5.2 °C 30.2in /  1021.0hPa Calm     96% 0in /  0.0mm 0 W/m2
22:10 42.4 °F /  5.8 °C 41.4 °F /  5.2 °C 30.2in /  1021.0hPa Calm     96% 0in /  0.0mm 0 W/m2
22:15 42.4 °F /  5.8 °C 41.4 °F /  5.2 °C 30.2in /  1021.0hPa Calm   1mph /  1.6km/h 96% 0in /  0.0mm 0 W/m2
22:20 42.4 °F /  5.8 °C 41.4 °F /  5.2 °C 30.2in /  1021.0hPa Calm   2mph /  3.2km/h 96% 0in /  0.0mm 0 W/m2
22:25 42.4 °F /  5.8 °C 41.4 °F /  5.2 °C 30.2in /  1021.0hPa Calm     96% 0in /  0.0mm 0 W/m2
22:30 42.4 °F /  5.8 °C 41.4 °F /  5.2 °C 30.2in /  1021.0hPa Calm   2mph /  3.2km/h 96% 0in /  0.0mm 0 W/m2
22:35 42.4 °F /  5.8 °C 41.4 °F /  5.2 °C 30.2in /  1021.0hPa Calm     96% 0in /  0.0mm 0 W/m2
22:40 42.4 °F /  5.8 °C 41.4 °F /  5.2 °C 30.2in /  1021.0hPa Calm   1mph /  1.6km/h 96% 0in /  0.0mm 0 W/m2
22:45 42.3 °F /  5.7 °C 41.2 °F /  5.1 °C 30.2in /  1021.0hPa Calm     96% 0in /  0.0mm 0 W/m2
22:50 42.3 °F /  5.7 °C 41.2 °F /  5.1 °C 30.2in /  1021.0hPa Calm     96% 0.01in /  0.2mm 0 W/m2
22:55 42.3 °F /  5.7 °C 41.2 °F /  5.1 °C 30.1in /  1020.7hPa Calm   1mph /  1.6km/h 96% 0.01in /  0.2mm 0 W/m2
23:00 42.3 °F /  5.7 °C 41.2 °F /  5.1 °C 30.1in /  1020.7hPa SE 0.9mph /  1.4km/h 2mph /  3.2km/h 96% 0.01in /  0.2mm 0 W/m2
23:05 42.3 °F /  5.7 °C 41.2 °F /  5.1 °C 30.1in /  1020.7hPa SSW 0.9mph /  1.4km/h 1mph /  1.6km/h 96% 0.01in /  0.2mm 0 W/m2
23:10 42.1 °F /  5.6 °C 41 °F /  5 °C 30.2in /  1021.0hPa Calm   1mph /  1.6km/h 96% 0.01in /  0.2mm 0 W/m2
23:15 41.9 °F /  5.5 °C 40.8 °F /  4.9 °C 30.1in /  1020.7hPa Calm   2mph /  3.2km/h 96% 0.01in /  0.2mm 0 W/m2
23:20 41.7 °F /  5.4 °C 40.6 °F /  4.8 °C 30.1in /  1020.7hPa Calm   1mph /  1.6km/h 96% 0.01in /  0.2mm 0 W/m2
23:25 41.7 °F /  5.4 °C 40.6 °F /  4.8 °C 30.1in /  1020.7hPa SSW 0.9mph /  1.4km/h 1mph /  1.6km/h 96% 0.01in /  0.2mm 0 W/m2
23:30 41.9 °F /  5.5 °C 40.8 °F /  4.9 °C 30.1in /  1020.7hPa Calm   2mph /  3.2km/h 96% 0.01in /  0.2mm 0 W/m2
23:35 42.1 °F /  5.6 °C 41 °F /  5 °C 30.1in /  1020.7hPa Calm     96% 0.01in /  0.2mm 0 W/m2
23:40 42.1 °F /  5.6 °C 41 °F /  5 °C 30.2in /  1021.0hPa Calm   1mph /  1.6km/h 96% 0.01in /  0.2mm 0 W/m2
23:45 42.3 °F /  5.7 °C 41.2 °F /  5.1 °C 30.2in /  1021.0hPa Calm   1mph /  1.6km/h 96% 0.01in /  0.2mm 0 W/m2
23:50 42.4 °F /  5.8 °C 41.7 °F /  5.4 °C 30.1in /  1020.7hPa SE 2mph /  3.2km/h 3mph /  4.8km/h 97% 0in /  0.0mm 0 W/m2
23:55 43 °F /  6.1 °C 42.3 °F /  5.7 °C 30.1in /  1020.7hPa Calm   2mph /  3.2km/h 97% 0in /  0.0mm 0 W/m2
Juneau County Weather
Compliments of Weather Underground - 4 mb